sensor_id;sensor_type;location;lat;lon;timestamp;temperature;humidity
14057;DHT22;7103;54.300;10.180;2022-09-02T00:01:38;12.70;1.00
14057;DHT22;7103;54.300;10.180;2022-09-02T00:04:08;12.60;1.00
14057;DHT22;7103;54.300;10.180;2022-09-02T00:06:36;12.50;1.00
14057;DHT22;7103;54.300;10.180;2022-09-02T00:09:05;12.50;1.00
14057;DHT22;7103;54.300;10.180;2022-09-02T00:11:34;12.50;1.00
14057;DHT22;7103;54.300;10.180;2022-09-02T00:14:05;12.50;1.00
14057;DHT22;7103;54.300;10.180;2022-09-02T00:16:32;12.50;1.00
14057;DHT22;7103;54.300;10.180;2022-09-02T00:19:01;12.40;1.00
14057;DHT22;7103;54.300;10.180;2022-09-02T00:21:29;12.40;1.00
14057;DHT22;7103;54.300;10.180;2022-09-02T00:23:56;12.30;1.00
14057;DHT22;7103;54.300;10.180;2022-09-02T00:26:23;12.30;1.00
14057;DHT22;7103;54.300;10.180;2022-09-02T00:28:50;12.30;1.00
14057;DHT22;7103;54.300;10.180;2022-09-02T00:31:23;12.20;1.00
14057;DHT22;7103;54.300;10.180;2022-09-02T00:33:50;12.10;1.00
14057;DHT22;7103;54.300;10.180;2022-09-02T00:36:18;12.20;1.00
14057;DHT22;7103;54.300;10.180;2022-09-02T00:38:45;12.10;1.00
14057;DHT22;7103;54.300;10.180;2022-09-02T00:41:13;12.10;1.00
14057;DHT22;7103;54.300;10.180;2022-09-02T00:43:44;12.00;1.00
14057;DHT22;7103;54.300;10.180;2022-09-02T00:46:14;12.00;1.00
14057;DHT22;7103;54.300;10.180;2022-09-02T00:48:47;11.90;1.00
14057;DHT22;7103;54.300;10.180;2022-09-02T00:51:15;11.90;1.00
14057;DHT22;7103;54.300;10.180;2022-09-02T00:53:43;11.90;1.00
14057;DHT22;7103;54.300;10.180;2022-09-02T00:56:17;11.80;1.00
14057;DHT22;7103;54.300;10.180;2022-09-02T00:58:46;11.70;1.00
14057;DHT22;7103;54.300;10.180;2022-09-02T01:01:13;11.70;1.00
14057;DHT22;7103;54.300;10.180;2022-09-02T01:03:40;11.60;1.00
14057;DHT22;7103;54.300;10.180;2022-09-02T01:06:10;11.50;1.00
14057;DHT22;7103;54.300;10.180;2022-09-02T01:08:46;11.50;1.00
14057;DHT22;7103;54.300;10.180;2022-09-02T01:11:14;11.40;1.00
14057;DHT22;7103;54.300;10.180;2022-09-02T01:13:44;11.40;1.00
14057;DHT22;7103;54.300;10.180;2022-09-02T01:18:46;11.30;1.00
14057;DHT22;7103;54.300;10.180;2022-09-02T01:21:15;11.20;1.00
14057;DHT22;7103;54.300;10.180;2022-09-02T01:23:44;11.20;1.00
14057;DHT22;7103;54.300;10.180;2022-09-02T01:26:12;11.10;1.00
14057;DHT22;7103;54.300;10.180;2022-09-02T01:28:39;11.10;1.00
14057;DHT22;7103;54.300;10.180;2022-09-02T01:31:06;11.00;1.00
14057;DHT22;7103;54.300;10.180;2022-09-02T01:33:33;11.00;1.00
14057;DHT22;7103;54.300;10.180;2022-09-02T01:36:01;11.00;1.00
14057;DHT22;7103;54.300;10.180;2022-09-02T01:38:30;10.90;1.00
14057;DHT22;7103;54.300;10.180;2022-09-02T01:40:57;10.90;1.00
14057;DHT22;7103;54.300;10.180;2022-09-02T01:43:26;10.90;1.00
14057;DHT22;7103;54.300;10.180;2022-09-02T01:45:56;10.90;1.00
14057;DHT22;7103;54.300;10.180;2022-09-02T01:48:23;10.80;1.00
14057;DHT22;7103;54.300;10.180;2022-09-02T01:50:57;10.80;1.00
14057;DHT22;7103;54.300;10.180;2022-09-02T01:53:25;10.80;1.00
14057;DHT22;7103;54.300;10.180;2022-09-02T01:55:52;10.80;1.00
14057;DHT22;7103;54.300;10.180;2022-09-02T01:58:20;10.70;1.00
14057;DHT22;7103;54.300;10.180;2022-09-02T02:00:47;10.70;1.00
14057;DHT22;7103;54.300;10.180;2022-09-02T02:03:15;10.70;1.00
14057;DHT22;7103;54.300;10.180;2022-09-02T02:05:42;10.70;1.00
14057;DHT22;7103;54.300;10.180;2022-09-02T02:08:10;10.70;1.00
14057;DHT22;7103;54.300;10.180;2022-09-02T02:10:39;10.60;1.00
14057;DHT22;7103;54.300;10.180;2022-09-02T02:13:07;10.60;1.00
14057;DHT22;7103;54.300;10.180;2022-09-02T02:15:39;10.60;1.00
14057;DHT22;7103;54.300;10.180;2022-09-02T02:18:07;10.60;1.00
14057;DHT22;7103;54.300;10.180;2022-09-02T02:20:35;10.60;1.00
14057;DHT22;7103;54.300;10.180;2022-09-02T02:23:03;10.60;1.00
14057;DHT22;7103;54.300;10.180;2022-09-02T02:25:31;10.60;1.00
14057;DHT22;7103;54.300;10.180;2022-09-02T02:27:58;10.60;1.00
14057;DHT22;7103;54.300;10.180;2022-09-02T02:30:28;10.60;1.00
14057;DHT22;7103;54.300;10.180;2022-09-02T02:32:56;10.50;1.00
14057;DHT22;7103;54.300;10.180;2022-09-02T02:35:23;10.50;1.00
14057;DHT22;7103;54.300;10.180;2022-09-02T02:37:50;10.50;1.00
14057;DHT22;7103;54.300;10.180;2022-09-02T02:40:21;10.40;1.00
14057;DHT22;7103;54.300;10.180;2022-09-02T02:42:49;10.40;1.00
14057;DHT22;7103;54.300;10.180;2022-09-02T02:45:20;10.40;1.00
14057;DHT22;7103;54.300;10.180;2022-09-02T02:47:47;10.30;1.00
14057;DHT22;7103;54.300;10.180;2022-09-02T02:50:16;10.30;1.00
14057;DHT22;7103;54.300;10.180;2022-09-02T02:52:44;10.30;1.00
14057;DHT22;7103;54.300;10.180;2022-09-02T02:55:12;10.30;1.00
14057;DHT22;7103;54.300;10.180;2022-09-02T02:57:40;10.30;1.00
14057;DHT22;7103;54.300;10.180;2022-09-02T03:00:10;10.10;1.00
14057;DHT22;7103;54.300;10.180;2022-09-02T03:02:38;10.20;1.00
14057;DHT22;7103;54.300;10.180;2022-09-02T03:05:07;10.20;1.00
14057;DHT22;7103;54.300;10.180;2022-09-02T03:07:34;10.10;1.00
14057;DHT22;7103;54.300;10.180;2022-09-02T03:10:04;10.10;1.00
14057;DHT22;7103;54.300;10.180;2022-09-02T03:12:37;10.20;1.00
14057;DHT22;7103;54.300;10.180;2022-09-02T03:15:06;10.20;1.00
14057;DHT22;7103;54.300;10.180;2022-09-02T03:17:34;10.10;1.00
14057;DHT22;7103;54.300;10.180;2022-09-02T03:20:02;10.10;1.00
14057;DHT22;7103;54.300;10.180;2022-09-02T03:22:29;10.10;1.00
14057;DHT22;7103;54.300;10.180;2022-09-02T03:24:56;10.10;1.00
14057;DHT22;7103;54.300;10.180;2022-09-02T03:27:24;10.10;1.00
14057;DHT22;7103;54.300;10.180;2022-09-02T03:29:51;10.10;1.00
14057;DHT22;7103;54.300;10.180;2022-09-02T03:32:18;10.10;1.00
14057;DHT22;7103;54.300;10.180;2022-09-02T03:34:45;10.10;1.00
14057;DHT22;7103;54.300;10.180;2022-09-02T03:37:12;10.10;1.00
14057;DHT22;7103;54.300;10.180;2022-09-02T03:39:39;10.10;1.00
14057;DHT22;7103;54.300;10.180;2022-09-02T03:42:07;10.10;1.00
14057;DHT22;7103;54.300;10.180;2022-09-02T03:44:45;10.10;1.00
14057;DHT22;7103;54.300;10.180;2022-09-02T03:47:13;10.10;1.00
14057;DHT22;7103;54.300;10.180;2022-09-02T03:49:40;10.00;1.00
14057;DHT22;7103;54.300;10.180;2022-09-02T03:52:09;10.00;1.00
14057;DHT22;7103;54.300;10.180;2022-09-02T03:54:36;10.00;1.00
14057;DHT22;7103;54.300;10.180;2022-09-02T03:57:04;10.00;1.00
14057;DHT22;7103;54.300;10.180;2022-09-02T03:59:31;10.00;1.00
14057;DHT22;7103;54.300;10.180;2022-09-02T04:02:00;10.00;1.00
14057;DHT22;7103;54.300;10.180;2022-09-02T04:04:28;9.90;1.00
14057;DHT22;7103;54.300;10.180;2022-09-02T04:06:56;9.90;1.00
14057;DHT22;7103;54.300;10.180;2022-09-02T04:09:24;9.90;1.00
14057;DHT22;7103;54.300;10.180;2022-09-02T04:11:51;9.90;1.00
14057;DHT22;7103;54.300;10.180;2022-09-02T04:14:18;9.90;1.00
14057;DHT22;7103;54.300;10.180;2022-09-02T04:16:45;9.90;1.00
14057;DHT22;7103;54.300;10.180;2022-09-02T04:19:12;9.90;1.00
14057;DHT22;7103;54.300;10.180;2022-09-02T04:21:40;9.90;1.00
14057;DHT22;7103;54.300;10.180;2022-09-02T04:24:09;9.80;1.00
14057;DHT22;7103;54.300;10.180;2022-09-02T04:26:36;9.90;1.00
14057;DHT22;7103;54.300;10.180;2022-09-02T04:29:11;9.90;1.00
14057;DHT22;7103;54.300;10.180;2022-09-02T04:31:38;9.90;1.00
14057;DHT22;7103;54.300;10.180;2022-09-02T04:34:05;9.80;1.00
14057;DHT22;7103;54.300;10.180;2022-09-02T04:36:33;9.80;1.00
14057;DHT22;7103;54.300;10.180;2022-09-02T04:39:00;9.80;1.00
14057;DHT22;7103;54.300;10.180;2022-09-02T04:41:29;9.80;1.00
14057;DHT22;7103;54.300;10.180;2022-09-02T04:43:58;9.80;1.00
14057;DHT22;7103;54.300;10.180;2022-09-02T04:46:25;9.80;1.00
14057;DHT22;7103;54.300;10.180;2022-09-02T04:49:01;9.80;1.00
14057;DHT22;7103;54.300;10.180;2022-09-02T04:51:28;9.80;1.00
14057;DHT22;7103;54.300;10.180;2022-09-02T04:53:56;9.80;1.00
14057;DHT22;7103;54.300;10.180;2022-09-02T04:56:27;9.80;1.00
14057;DHT22;7103;54.300;10.180;2022-09-02T04:58:55;9.80;1.00
14057;DHT22;7103;54.300;10.180;2022-09-02T05:01:24;9.80;1.00
14057;DHT22;7103;54.300;10.180;2022-09-02T05:03:52;9.80;1.00
14057;DHT22;7103;54.300;10.180;2022-09-02T05:06:22;9.80;1.00
14057;DHT22;7103;54.300;10.180;2022-09-02T05:08:53;9.80;1.00
14057;DHT22;7103;54.300;10.180;2022-09-02T05:11:23;9.80;1.00
14057;DHT22;7103;54.300;10.180;2022-09-02T05:13:51;9.80;1.00
14057;DHT22;7103;54.300;10.180;2022-09-02T05:16:23;9.90;1.00
14057;DHT22;7103;54.300;10.180;2022-09-02T05:18:52;9.90;1.00
14057;DHT22;7103;54.300;10.180;2022-09-02T05:21:20;9.90;1.00
14057;DHT22;7103;54.300;10.180;2022-09-02T05:23:50;9.90;1.00
14057;DHT22;7103;54.300;10.180;2022-09-02T05:26:20;9.90;1.00
14057;DHT22;7103;54.300;10.180;2022-09-02T05:28:49;9.90;1.00
14057;DHT22;7103;54.300;10.180;2022-09-02T05:31:17;9.90;1.00
14057;DHT22;7103;54.300;10.180;2022-09-02T05:33:45;9.90;1.00
14057;DHT22;7103;54.300;10.180;2022-09-02T05:36:18;10.10;1.00
14057;DHT22;7103;54.300;10.180;2022-09-02T05:38:46;10.10;21.20
14057;DHT22;7103;54.300;10.180;2022-09-02T05:41:19;10.00;21.20
14057;DHT22;7103;54.300;10.180;2022-09-02T05:43:51;10.10;28.00
14057;DHT22;7103;54.300;10.180;2022-09-02T05:46:20;10.10;31.60
14057;DHT22;7103;54.300;10.180;2022-09-02T05:48:49;10.20;34.70
14057;DHT22;7103;54.300;10.180;2022-09-02T05:51:47;10.20;48.10
14057;DHT22;7103;54.300;10.180;2022-09-02T05:54:21;10.30;62.70
14057;DHT22;7103;54.300;10.180;2022-09-02T05:56:51;10.30;78.20
14057;DHT22;7103;54.300;10.180;2022-09-02T05:59:21;10.40;78.60
14057;DHT22;7103;54.300;10.180;2022-09-02T06:01:49;10.50;78.80
14057;DHT22;7103;54.300;10.180;2022-09-02T06:04:16;10.60;87.40
14057;DHT22;7103;54.300;10.180;2022-09-02T06:06:43;10.60;91.00
14057;DHT22;7103;54.300;10.180;2022-09-02T06:09:13;10.70;98.90
14057;DHT22;7103;54.300;10.180;2022-09-02T06:11:42;10.90;99.90
14057;DHT22;7103;54.300;10.180;2022-09-02T06:14:17;11.10;99.90
14057;DHT22;7103;54.300;10.180;2022-09-02T06:16:45;11.30;99.90
14057;DHT22;7103;54.300;10.180;2022-09-02T06:19:12;11.40;99.90
14057;DHT22;7103;54.300;10.180;2022-09-02T06:21:46;11.60;99.90
14057;DHT22;7103;54.300;10.180;2022-09-02T06:24:14;11.60;99.90
14057;DHT22;7103;54.300;10.180;2022-09-02T06:26:41;11.80;99.90
14057;DHT22;7103;54.300;10.180;2022-09-02T06:29:10;11.80;99.90
14057;DHT22;7103;54.300;10.180;2022-09-02T06:31:40;11.80;99.90
14057;DHT22;7103;54.300;10.180;2022-09-02T06:34:08;12.20;99.90
14057;DHT22;7103;54.300;10.180;2022-09-02T06:36:40;12.20;99.90
14057;DHT22;7103;54.300;10.180;2022-09-02T06:39:10;12.40;99.90
14057;DHT22;7103;54.300;10.180;2022-09-02T06:41:39;12.50;99.80
14057;DHT22;7103;54.300;10.180;2022-09-02T06:44:08;12.60;87.40
14057;DHT22;7103;54.300;10.180;2022-09-02T06:46:39;13.00;94.40
14057;DHT22;7103;54.300;10.180;2022-09-02T06:49:09;13.80;47.10
14057;DHT22;7103;54.300;10.180;2022-09-02T06:51:40;14.90;1.00
14057;DHT22;7103;54.300;10.180;2022-09-02T06:54:09;16.10;1.00
14057;DHT22;7103;54.300;10.180;2022-09-02T06:56:40;17.00;1.00
14057;DHT22;7103;54.300;10.180;2022-09-02T06:59:14;17.80;1.00
14057;DHT22;7103;54.300;10.180;2022-09-02T07:01:42;18.40;1.00
14057;DHT22;7103;54.300;10.180;2022-09-02T07:04:10;19.20;1.00
14057;DHT22;7103;54.300;10.180;2022-09-02T07:06:56;19.70;1.00
14057;DHT22;7103;54.300;10.180;2022-09-02T07:09:26;20.20;1.00
14057;DHT22;7103;54.300;10.180;2022-09-02T07:12:01;20.60;1.00
14057;DHT22;7103;54.300;10.180;2022-09-02T07:14:36;20.80;1.00
14057;DHT22;7103;54.300;10.180;2022-09-02T07:17:04;21.10;1.00
14057;DHT22;7103;54.300;10.180;2022-09-02T07:19:32;21.50;1.00
14057;DHT22;7103;54.300;10.180;2022-09-02T07:21:59;21.90;1.00
14057;DHT22;7103;54.300;10.180;2022-09-02T07:24:28;22.00;1.00
14057;DHT22;7103;54.300;10.180;2022-09-02T07:26:55;22.30;1.00
14057;DHT22;7103;54.300;10.180;2022-09-02T07:29:22;22.50;1.00
14057;DHT22;7103;54.300;10.180;2022-09-02T07:31:50;22.40;1.00
14057;DHT22;7103;54.300;10.180;2022-09-02T07:34:18;22.70;1.00
14057;DHT22;7103;54.300;10.180;2022-09-02T07:36:45;22.70;1.00
14057;DHT22;7103;54.300;10.180;2022-09-02T07:39:14;23.10;1.00
14057;DHT22;7103;54.300;10.180;2022-09-02T07:41:43;23.20;1.00
14057;DHT22;7103;54.300;10.180;2022-09-02T07:44:10;23.30;1.00
14057;DHT22;7103;54.300;10.180;2022-09-02T07:46:38;23.40;1.00
14057;DHT22;7103;54.300;10.180;2022-09-02T07:49:09;23.50;1.00
14057;DHT22;7103;54.300;10.180;2022-09-02T07:51:39;23.50;1.00
14057;DHT22;7103;54.300;10.180;2022-09-02T07:54:09;23.40;1.00
14057;DHT22;7103;54.300;10.180;2022-09-02T07:56:36;23.70;1.00
14057;DHT22;7103;54.300;10.180;2022-09-02T07:59:03;23.60;1.00
14057;DHT22;7103;54.300;10.180;2022-09-02T08:01:31;23.70;1.00
14057;DHT22;7103;54.300;10.180;2022-09-02T08:03:58;23.50;1.00
14057;DHT22;7103;54.300;10.180;2022-09-02T08:06:31;23.30;1.00
14057;DHT22;7103;54.300;10.180;2022-09-02T08:09:05;23.50;1.00
14057;DHT22;7103;54.300;10.180;2022-09-02T08:11:39;23.60;1.00
14057;DHT22;7103;54.300;10.180;2022-09-02T08:14:09;23.40;1.00
14057;DHT22;7103;54.300;10.180;2022-09-02T08:16:37;23.50;1.00
14057;DHT22;7103;54.300;10.180;2022-09-02T08:19:06;23.80;1.00
14057;DHT22;7103;54.300;10.180;2022-09-02T08:21:33;23.90;1.00
14057;DHT22;7103;54.300;10.180;2022-09-02T08:24:01;24.00;1.00
14057;DHT22;7103;54.300;10.180;2022-09-02T08:26:28;24.10;1.00
14057;DHT22;7103;54.300;10.180;2022-09-02T08:28:55;24.30;1.00
14057;DHT22;7103;54.300;10.180;2022-09-02T08:31:23;24.20;1.00
14057;DHT22;7103;54.300;10.180;2022-09-02T08:33:50;24.50;1.00
14057;DHT22;7103;54.300;10.180;2022-09-02T08:36:17;24.60;1.00
14057;DHT22;7103;54.300;10.180;2022-09-02T08:38:46;24.40;1.00
14057;DHT22;7103;54.300;10.180;2022-09-02T08:41:24;24.20;1.00
14057;DHT22;7103;54.300;10.180;2022-09-02T08:43:57;24.50;1.00
14057;DHT22;7103;54.300;10.180;2022-09-02T08:46:27;24.70;1.00
14057;DHT22;7103;54.300;10.180;2022-09-02T08:49:17;24.40;1.00
14057;DHT22;7103;54.300;10.180;2022-09-02T08:51:51;24.80;1.00
14057;DHT22;7103;54.300;10.180;2022-09-02T08:56:58;24.60;1.00
14057;DHT22;7103;54.300;10.180;2022-09-02T08:59:26;24.90;1.00
14057;DHT22;7103;54.300;10.180;2022-09-02T09:08:07;25.40;1.00
14057;DHT22;7103;54.300;10.180;2022-09-02T09:16:41;24.60;1.00
14057;DHT22;7103;54.300;10.180;2022-09-02T09:21:42;24.90;1.00
14057;DHT22;7103;54.300;10.180;2022-09-02T09:26:48;24.80;1.00
14057;DHT22;7103;54.300;10.180;2022-09-02T09:29:15;24.80;1.00
14057;DHT22;7103;54.300;10.180;2022-09-02T09:31:43;24.80;1.00
14057;DHT22;7103;54.300;10.180;2022-09-02T09:34:12;24.70;1.00
14057;DHT22;7103;54.300;10.180;2022-09-02T09:39:24;24.60;1.00
14057;DHT22;7103;54.300;10.180;2022-09-02T09:41:54;24.30;1.00
14057;DHT22;7103;54.300;10.180;2022-09-02T09:47:01;24.70;1.00
14057;DHT22;7103;54.300;10.180;2022-09-02T09:49:31;24.90;1.00
14057;DHT22;7103;54.300;10.180;2022-09-02T09:51:59;24.90;1.00
14057;DHT22;7103;54.300;10.180;2022-09-02T09:54:26;24.40;1.00
14057;DHT22;7103;54.300;10.180;2022-09-02T09:56:55;24.60;1.00
14057;DHT22;7103;54.300;10.180;2022-09-02T09:59:40;24.80;1.00
14057;DHT22;7103;54.300;10.180;2022-09-02T10:02:22;25.40;1.00
14057;DHT22;7103;54.300;10.180;2022-09-02T10:04:52;25.80;99.90
14057;DHT22;7103;54.300;10.180;2022-09-02T10:07:41;25.70;1.00
14057;DHT22;7103;54.300;10.180;2022-09-02T10:10:20;25.20;99.90
14057;DHT22;7103;54.300;10.180;2022-09-02T10:12:50;24.80;99.90
14057;DHT22;7103;54.300;10.180;2022-09-02T10:15:34;24.70;1.00
14057;DHT22;7103;54.300;10.180;2022-09-02T10:18:46;24.60;1.00
14057;DHT22;7103;54.300;10.180;2022-09-02T10:27:04;25.80;99.90
14057;DHT22;7103;54.300;10.180;2022-09-02T10:32:31;26.00;99.90
14057;DHT22;7103;54.300;10.180;2022-09-02T10:35:08;25.80;99.90
14057;DHT22;7103;54.300;10.180;2022-09-02T10:38:05;25.70;99.90
14057;DHT22;7103;54.300;10.180;2022-09-02T10:40:44;26.00;99.90
14057;DHT22;7103;54.300;10.180;2022-09-02T10:43:36;26.30;99.90
14057;DHT22;7103;54.300;10.180;2022-09-02T10:46:15;26.20;99.90
14057;DHT22;7103;54.300;10.180;2022-09-02T10:49:00;26.20;99.90
14057;DHT22;7103;54.300;10.180;2022-09-02T10:56:52;26.10;99.90
14057;DHT22;7103;54.300;10.180;2022-09-02T11:00:17;26.00;99.90
14057;DHT22;7103;54.300;10.180;2022-09-02T11:05:22;26.20;99.90
14057;DHT22;7103;54.300;10.180;2022-09-02T11:08:03;25.60;99.90
14057;DHT22;7103;54.300;10.180;2022-09-02T11:10:59;25.30;99.90
14057;DHT22;7103;54.300;10.180;2022-09-02T11:16:11;25.70;99.90
14057;DHT22;7103;54.300;10.180;2022-09-02T11:18:58;26.00;99.90
14057;DHT22;7103;54.300;10.180;2022-09-02T11:26:52;25.00;99.90
14057;DHT22;7103;54.300;10.180;2022-09-02T11:29:54;24.90;99.90
14057;DHT22;7103;54.300;10.180;2022-09-02T11:35:21;25.70;99.90
14057;DHT22;7103;54.300;10.180;2022-09-02T11:37:56;25.80;99.90
14057;DHT22;7103;54.300;10.180;2022-09-02T11:43:44;25.40;99.90
14057;DHT22;7103;54.300;10.180;2022-09-02T11:46:47;25.70;99.90
14057;DHT22;7103;54.300;10.180;2022-09-02T11:49:55;25.80;99.90
14057;DHT22;7103;54.300;10.180;2022-09-02T11:55:13;25.60;99.90
14057;DHT22;7103;54.300;10.180;2022-09-02T11:57:45;25.80;99.90
14057;DHT22;7103;54.300;10.180;2022-09-02T12:01:03;25.40;99.90
14057;DHT22;7103;54.300;10.180;2022-09-02T12:03:32;25.60;99.90
14057;DHT22;7103;54.300;10.180;2022-09-02T12:06:21;25.60;99.90
14057;DHT22;7103;54.300;10.180;2022-09-02T12:11:44;25.80;99.90
14057;DHT22;7103;54.300;10.180;2022-09-02T12:17:03;25.30;99.90
14057;DHT22;7103;54.300;10.180;2022-09-02T12:19:42;25.00;99.90
14057;DHT22;7103;54.300;10.180;2022-09-02T12:24:56;25.40;99.90
14057;DHT22;7103;54.300;10.180;2022-09-02T12:27:29;25.30;99.90
14057;DHT22;7103;54.300;10.180;2022-09-02T12:29:59;25.20;99.90
14057;DHT22;7103;54.300;10.180;2022-09-02T12:35:32;25.40;99.90
14057;DHT22;7103;54.300;10.180;2022-09-02T12:40:46;25.80;99.90
14057;DHT22;7103;54.300;10.180;2022-09-02T12:43:43;25.40;99.90
14057;DHT22;7103;54.300;10.180;2022-09-02T12:49:42;24.40;99.90
14057;DHT22;7103;54.300;10.180;2022-09-02T12:54:56;24.50;99.90
14057;DHT22;7103;54.300;10.180;2022-09-02T12:57:17;24.50;1.00
14057;DHT22;7103;54.300;10.180;2022-09-02T12:59:46;24.80;1.00
14057;DHT22;7103;54.300;10.180;2022-09-02T13:02:23;24.80;99.90
14057;DHT22;7103;54.300;10.180;2022-09-02T13:05:09;24.00;1.00
14057;DHT22;7103;54.300;10.180;2022-09-02T13:16:16;24.40;1.00
14057;DHT22;7103;54.300;10.180;2022-09-02T13:19:05;24.30;1.00
14057;DHT22;7103;54.300;10.180;2022-09-02T13:24:35;24.50;1.00
14057;DHT22;7103;54.300;10.180;2022-09-02T13:27:31;24.70;1.00
14057;DHT22;7103;54.300;10.180;2022-09-02T13:32:39;24.40;1.00
14057;DHT22;7103;54.300;10.180;2022-09-02T13:35:15;24.20;1.00
14057;DHT22;7103;54.300;10.180;2022-09-02T13:37:54;24.10;1.00
14057;DHT22;7103;54.300;10.180;2022-09-02T13:40:28;24.40;1.00
14057;DHT22;7103;54.300;10.180;2022-09-02T13:42:57;24.70;1.00
14057;DHT22;7103;54.300;10.180;2022-09-02T13:45:29;24.70;1.00
14057;DHT22;7103;54.300;10.180;2022-09-02T13:48:01;24.60;1.00
14057;DHT22;7103;54.300;10.180;2022-09-02T13:50:29;24.60;1.00
14057;DHT22;7103;54.300;10.180;2022-09-02T13:52:59;24.50;1.00
14057;DHT22;7103;54.300;10.180;2022-09-02T13:55:53;24.40;1.00
14057;DHT22;7103;54.300;10.180;2022-09-02T14:03:50;24.10;1.00
14057;DHT22;7103;54.300;10.180;2022-09-02T14:06:30;24.20;1.00
14057;DHT22;7103;54.300;10.180;2022-09-02T14:09:01;24.10;1.00
14057;DHT22;7103;54.300;10.180;2022-09-02T14:11:35;24.20;1.00
14057;DHT22;7103;54.300;10.180;2022-09-02T14:14:03;24.30;1.00
14057;DHT22;7103;54.300;10.180;2022-09-02T14:16:35;24.30;1.00
14057;DHT22;7103;54.300;10.180;2022-09-02T14:21:31;23.90;1.00
14057;DHT22;7103;54.300;10.180;2022-09-02T14:23:58;23.60;1.00
14057;DHT22;7103;54.300;10.180;2022-09-02T14:26:36;23.40;1.00
14057;DHT22;7103;54.300;10.180;2022-09-02T14:29:05;23.00;1.00
14057;DHT22;7103;54.300;10.180;2022-09-02T14:31:33;23.00;1.00
14057;DHT22;7103;54.300;10.180;2022-09-02T14:34:00;22.90;1.00
14057;DHT22;7103;54.300;10.180;2022-09-02T14:39:13;22.90;1.00
14057;DHT22;7103;54.300;10.180;2022-09-02T14:41:52;22.90;1.00
14057;DHT22;7103;54.300;10.180;2022-09-02T14:44:33;23.00;1.00
14057;DHT22;7103;54.300;10.180;2022-09-02T14:47:05;23.00;1.00
14057;DHT22;7103;54.300;10.180;2022-09-02T14:49:36;22.70;1.00
14057;DHT22;7103;54.300;10.180;2022-09-02T14:52:16;22.60;1.00
14057;DHT22;7103;54.300;10.180;2022-09-02T14:54:47;22.80;1.00
14057;DHT22;7103;54.300;10.180;2022-09-02T14:59:51;22.90;1.00
14057;DHT22;7103;54.300;10.180;2022-09-02T15:04:55;22.80;1.00
14057;DHT22;7103;54.300;10.180;2022-09-02T15:07:23;22.60;1.00
14057;DHT22;7103;54.300;10.180;2022-09-02T15:09:51;22.40;1.00
14057;DHT22;7103;54.300;10.180;2022-09-02T15:12:21;22.70;1.00
14057;DHT22;7103;54.300;10.180;2022-09-02T15:14:51;22.70;1.00
14057;DHT22;7103;54.300;10.180;2022-09-02T15:17:19;22.80;1.00
14057;DHT22;7103;54.300;10.180;2022-09-02T15:19:47;22.60;1.00
14057;DHT22;7103;54.300;10.180;2022-09-02T15:22:15;22.40;1.00
14057;DHT22;7103;54.300;10.180;2022-09-02T15:24:43;22.50;1.00
14057;DHT22;7103;54.300;10.180;2022-09-02T15:27:11;22.50;1.00
14057;DHT22;7103;54.300;10.180;2022-09-02T15:29:38;22.60;1.00
14057;DHT22;7103;54.300;10.180;2022-09-02T15:32:06;22.40;1.00
14057;DHT22;7103;54.300;10.180;2022-09-02T15:34:33;22.40;1.00
14057;DHT22;7103;54.300;10.180;2022-09-02T15:37:01;22.30;1.00
14057;DHT22;7103;54.300;10.180;2022-09-02T15:39:28;22.30;1.00
14057;DHT22;7103;54.300;10.180;2022-09-02T15:41:56;22.30;1.00
14057;DHT22;7103;54.300;10.180;2022-09-02T15:44:24;22.30;1.00
14057;DHT22;7103;54.300;10.180;2022-09-02T15:46:52;22.30;1.00
14057;DHT22;7103;54.300;10.180;2022-09-02T15:49:20;22.40;1.00
14057;DHT22;7103;54.300;10.180;2022-09-02T15:51:48;22.20;1.00
14057;DHT22;7103;54.300;10.180;2022-09-02T15:54:19;21.90;1.00
14057;DHT22;7103;54.300;10.180;2022-09-02T15:56:47;21.80;1.00
14057;DHT22;7103;54.300;10.180;2022-09-02T15:59:16;21.80;1.00
14057;DHT22;7103;54.300;10.180;2022-09-02T16:01:46;21.90;1.00
14057;DHT22;7103;54.300;10.180;2022-09-02T16:04:14;21.90;1.00
14057;DHT22;7103;54.300;10.180;2022-09-02T16:06:44;21.90;1.00
14057;DHT22;7103;54.300;10.180;2022-09-02T16:09:13;21.80;1.00
14057;DHT22;7103;54.300;10.180;2022-09-02T16:11:50;21.60;1.00
14057;DHT22;7103;54.300;10.180;2022-09-02T16:14:19;21.70;1.00
14057;DHT22;7103;54.300;10.180;2022-09-02T16:16:48;21.60;1.00
14057;DHT22;7103;54.300;10.180;2022-09-02T16:19:18;21.70;1.00
14057;DHT22;7103;54.300;10.180;2022-09-02T16:21:48;21.70;1.00
14057;DHT22;7103;54.300;10.180;2022-09-02T16:24:16;21.60;1.00
14057;DHT22;7103;54.300;10.180;2022-09-02T16:26:46;21.40;1.00
14057;DHT22;7103;54.300;10.180;2022-09-02T16:29:14;21.30;1.00
14057;DHT22;7103;54.300;10.180;2022-09-02T16:31:47;21.20;1.00
14057;DHT22;7103;54.300;10.180;2022-09-02T16:34:35;21.20;1.00
14057;DHT22;7103;54.300;10.180;2022-09-02T16:37:02;21.20;1.00
14057;DHT22;7103;54.300;10.180;2022-09-02T16:39:29;21.10;1.00
14057;DHT22;7103;54.300;10.180;2022-09-02T16:41:56;20.80;1.00
14057;DHT22;7103;54.300;10.180;2022-09-02T16:44:24;20.70;1.00
14057;DHT22;7103;54.300;10.180;2022-09-02T16:46:52;20.80;1.00
14057;DHT22;7103;54.300;10.180;2022-09-02T16:49:20;20.90;1.00
14057;DHT22;7103;54.300;10.180;2022-09-02T16:51:49;20.80;1.00
14057;DHT22;7103;54.300;10.180;2022-09-02T16:54:25;20.80;1.00
14057;DHT22;7103;54.300;10.180;2022-09-02T16:56:59;20.80;1.00
14057;DHT22;7103;54.300;10.180;2022-09-02T16:59:26;20.50;1.00
14057;DHT22;7103;54.300;10.180;2022-09-02T17:01:54;20.50;1.00
14057;DHT22;7103;54.300;10.180;2022-09-02T17:04:21;20.50;1.00
14057;DHT22;7103;54.300;10.180;2022-09-02T17:06:48;20.50;1.00
14057;DHT22;7103;54.300;10.180;2022-09-02T17:09:15;20.50;1.00
14057;DHT22;7103;54.300;10.180;2022-09-02T17:11:42;20.40;1.00
14057;DHT22;7103;54.300;10.180;2022-09-02T17:14:13;20.30;1.00
14057;DHT22;7103;54.300;10.180;2022-09-02T17:16:45;20.20;1.00
14057;DHT22;7103;54.300;10.180;2022-09-02T17:19:14;20.20;1.00
14057;DHT22;7103;54.300;10.180;2022-09-02T17:21:51;20.20;1.00
14057;DHT22;7103;54.300;10.180;2022-09-02T17:24:21;20.10;1.00
14057;DHT22;7103;54.300;10.180;2022-09-02T17:26:50;20.00;1.00
14057;DHT22;7103;54.300;10.180;2022-09-02T17:29:20;20.00;1.00
14057;DHT22;7103;54.300;10.180;2022-09-02T17:32:07;19.80;1.00
14057;DHT22;7103;54.300;10.180;2022-09-02T17:34:35;19.80;1.00
14057;DHT22;7103;54.300;10.180;2022-09-02T17:37:03;19.80;1.00
14057;DHT22;7103;54.300;10.180;2022-09-02T17:39:31;19.60;1.00
14057;DHT22;7103;54.300;10.180;2022-09-02T17:42:01;19.50;1.00
14057;DHT22;7103;54.300;10.180;2022-09-02T17:44:30;19.50;1.00
14057;DHT22;7103;54.300;10.180;2022-09-02T17:47:07;19.40;1.00
14057;DHT22;7103;54.300;10.180;2022-09-02T17:49:35;19.30;1.00
14057;DHT22;7103;54.300;10.180;2022-09-02T17:52:04;19.30;1.00
14057;DHT22;7103;54.300;10.180;2022-09-02T17:54:37;19.20;1.00
14057;DHT22;7103;54.300;10.180;2022-09-02T17:57:32;19.10;1.00
14057;DHT22;7103;54.300;10.180;2022-09-02T18:00:17;19.00;1.00
14057;DHT22;7103;54.300;10.180;2022-09-02T18:03:13;19.00;1.00